Time;durP1;ratioP1;P1;durP2;ratioP2;P2;SDS_P1;SDS_P2;PMS_P1;PMS_P2;Temp;Humidity;BMP_temperature;BMP_pressure;BME280_temperature;BME280_humidity;BME280_pressure;Samples;Min_cycle;Max_cycle;Signal;HPM_P1;HPM_P2
2021/03/02 00:01:20;;;;;;;10.78;4.53;;;;;;;3.28;79.87;100467.96;1763650;80;21186;-60
2021/03/02 00:03:51;;;;;;;6.20;3.67;;;;;;;3.28;79.91;100462.62;1754876;79;21289;-58
2021/03/02 00:06:19;;;;;;;9.45;4.97;;;;;;;3.28;79.92;100458.18;1755464;81;21295;-59
2021/03/02 00:08:46;;;;;;;9.63;4.25;;;;;;;3.28;79.95;100454.64;1756364;81;21538;-60
2021/03/02 00:11:14;;;;;;;10.50;4.47;;;;;;;3.27;80.00;100451.59;1758450;80;21162;-60
2021/03/02 00:13:42;;;;;;;9.18;4.65;;;;;;;3.24;80.05;100433.92;1759172;79;21506;-58
2021/03/02 00:16:10;;;;;;;11.65;5.15;;;;;;;3.24;80.17;100432.59;1758539;80;21158;-59
2021/03/02 00:18:49;;;;;;;7.62;3.80;;;;;;;3.24;80.19;100433.92;1758002;80;21126;-59
2021/03/02 00:21:18;;;;;;;9.10;4.25;;;;;;;3.25;80.23;100433.46;1759787;79;21179;-60
2021/03/02 00:23:53;;;;;;;8.28;4.42;;;;;;;3.25;80.25;100429.02;1764990;79;21254;-59
2021/03/02 00:26:22;;;;;;;7.03;3.62;;;;;;;3.21;80.22;100424.70;1761332;79;21317;-59
2021/03/02 00:28:50;;;;;;;7.25;4.05;;;;;;;3.19;80.38;100415.91;1762335;79;21633;-59
2021/03/02 00:31:18;;;;;;;6.50;3.37;;;;;;;3.17;80.45;100414.27;1759150;79;21768;-60
2021/03/02 00:33:46;;;;;;;5.12;3.45;;;;;;;3.11;80.66;100414.02;1718866;82;21261;-59
2021/03/02 00:36:14;;;;;;;6.33;3.52;;;;;;;3.07;80.87;100407.53;1762335;79;21287;-59
2021/03/02 00:38:42;;;;;;;5.80;3.33;;;;;;;3.04;81.01;100405.86;1764608;79;21170;-59
2021/03/02 00:41:10;;;;;;;8.10;3.98;;;;;;;3.03;81.16;100394.36;1764139;80;21310;-58
2021/03/02 00:43:37;;;;;;;5.75;3.65;;;;;;;3.05;81.24;100391.62;1765708;80;21354;-58
2021/03/02 00:46:05;;;;;;;7.35;3.77;;;;;;;3.06;81.26;100393.83;1760860;79;21326;-58
2021/03/02 00:48:34;;;;;;;8.45;3.40;;;;;;;3.04;81.27;100386.75;1768647;79;21151;-58
2021/03/02 00:51:04;;;;;;;9.10;4.42;;;;;;;3.01;81.37;100382.87;1764596;80;21146;-58
2021/03/02 00:53:31;;;;;;;8.18;4.28;;;;;;;2.99;81.52;100371.41;1741738;79;21164;-60
2021/03/02 00:55:59;;;;;;;7.15;4.33;;;;;;;2.97;81.59;100365.77;1767047;80;21594;-59
2021/03/02 00:58:27;;;;;;;6.58;3.87;;;;;;;2.93;81.67;100354.34;1767640;79;21190;-59
2021/03/02 01:00:55;;;;;;;6.50;3.65;;;;;;;2.87;81.78;100352.39;1771911;79;21143;-59
2021/03/02 01:03:24;;;;;;;6.03;3.37;;;;;;;2.82;81.97;100351.69;1764843;79;21103;-58
2021/03/02 01:05:53;;;;;;;8.03;3.50;;;;;;;2.76;82.10;100343.50;1768571;80;21143;-59
2021/03/02 01:08:23;;;;;;;6.53;4.25;;;;;;;2.71;82.37;100337.47;1766675;80;21142;-58
2021/03/02 01:10:52;;;;;;;6.92;3.67;;;;;;;2.68;82.50;100338.95;1765123;80;21166;-58
2021/03/02 01:13:25;;;;;;;8.48;3.98;;;;;;;2.65;82.67;100339.05;1765142;79;21177;-57
2021/03/02 01:15:53;;;;;;;13.55;4.92;;;;;;;2.60;82.88;100337.02;1764808;79;21151;-58
2021/03/02 01:18:21;;;;;;;14.00;4.72;;;;;;;2.57;83.05;100333.16;1765006;79;21155;-58
2021/03/02 01:20:49;;;;;;;11.63;5.05;;;;;;;2.54;83.19;100331.06;1770142;79;21167;-59
2021/03/02 01:23:16;;;;;;;11.50;4.80;;;;;;;2.53;83.33;100327.56;1759620;80;21162;-59
2021/03/02 01:25:44;;;;;;;10.95;4.75;;;;;;;2.52;83.48;100318.28;1770807;79;21151;-59
2021/03/02 01:28:11;;;;;;;11.57;4.72;;;;;;;2.47;83.61;100314.47;1762826;80;21171;-60
2021/03/02 01:30:40;;;;;;;10.28;4.25;;;;;;;2.44;83.76;100310.61;1765311;79;21164;-59
2021/03/02 01:33:08;;;;;;;8.38;4.22;;;;;;;2.41;84.05;100304.52;1762198;80;21711;-59
2021/03/02 01:35:37;;;;;;;9.30;4.92;;;;;;;2.37;84.24;100296.26;1767641;79;21182;-58
2021/03/02 01:38:05;;;;;;;8.23;4.40;;;;;;;2.32;84.51;100284.91;1767337;79;21123;-58
2021/03/02 01:40:33;;;;;;;8.65;4.75;;;;;;;2.29;84.64;100279.27;1769540;79;21147;-58
2021/03/02 01:43:01;;;;;;;11.00;4.40;;;;;;;2.26;84.93;100280.70;1763483;80;21190;-58
2021/03/02 01:45:29;;;;;;;9.43;4.92;;;;;;;2.22;85.05;100275.98;1754946;80;21151;-58
2021/03/02 01:47:57;;;;;;;12.58;5.35;;;;;;;2.20;85.24;100264.98;1767550;80;21552;-57
2021/03/02 01:50:25;;;;;;;9.58;5.37;;;;;;;2.16;85.53;100268.20;1769209;81;21139;-59
2021/03/02 12:32:23;;;;;;;39.13;20.45;;;;;;;4.03;76.40;99856.67;1763215;80;21185;-63
2021/03/02 12:34:56;;;;;;;38.98;20.43;;;;;;;4.10;76.43;99836.75;1758872;79;21628;-70
2021/03/02 12:37:24;;;;;;;40.03;20.20;;;;;;;4.14;76.26;99831.64;1762162;80;21582;-64
2021/03/02 12:39:51;;;;;;;40.90;21.20;;;;;;;4.16;75.85;99839.09;1765558;79;21120;-68
2021/03/02 12:42:19;;;;;;;42.23;21.45;;;;;;;4.15;75.70;99832.02;1704284;82;21138;-65
2021/03/02 12:44:51;;;;;;;37.60;19.52;;;;;;;4.16;75.92;99831.08;1761493;79;21277;-65
2021/03/02 12:47:19;;;;;;;42.13;21.85;;;;;;;4.18;75.50;99830.53;1756450;79;21123;-68
2021/03/02 12:49:46;;;;;;;39.42;19.95;;;;;;;4.16;75.59;99828.88;1760003;80;21171;-61
2021/03/02 12:52:14;;;;;;;42.83;21.87;;;;;;;4.16;75.59;99820.41;1764185;80;21265;-64
2021/03/02 12:54:42;;;;;;;43.13;22.55;;;;;;;4.20;75.76;99821.97;1756507;80;21120;-69
2021/03/02 12:57:10;;;;;;;42.25;21.15;;;;;;;4.24;75.58;99806.18;1749112;81;21236;-68
2021/03/02 13:03:10;;;;;;;38.30;19.60;;;;;;;4.34;74.79;99798.09;1774959;79;26141;-64
2021/03/02 13:05:39;;;;;;;38.67;20.48;;;;;;;4.25;75.07;99812.39;1736182;82;21272;-63
2021/03/02 13:08:07;;;;;;;35.50;18.98;;;;;;;4.26;75.30;99818.13;1753439;82;21143;-67
2021/03/02 13:10:35;;;;;;;38.73;19.32;;;;;;;4.28;74.71;99821.08;1739284;82;21284;-63
2021/03/02 13:13:04;;;;;;;38.10;20.57;;;;;;;4.25;74.75;99812.39;1720018;81;21162;-67
2021/03/02 13:15:32;;;;;;;39.65;20.37;;;;;;;4.26;74.55;99818.97;1736911;82;21350;-67
2021/03/02 13:18:00;;;;;;;42.45;20.27;;;;;;;4.26;74.36;99822.13;1740872;82;21309;-67
2021/03/02 13:20:28;;;;;;;40.33;21.00;;;;;;;4.26;74.13;99816.30;1735256;82;21301;-66
2021/03/02 13:22:56;;;;;;;37.58;20.80;;;;;;;4.29;74.19;99821.48;1748689;82;21167;-67
2021/03/02 13:25:24;;;;;;;38.20;18.65;;;;;;;4.32;73.89;99817.33;1735237;82;21131;-67
2021/03/02 13:27:54;;;;;;;34.00;18.32;;;;;;;4.32;73.49;99801.32;1736126;82;21313;-69
2021/03/02 13:30:25;;;;;;;39.45;18.60;;;;;;;4.31;73.50;99808.92;1746613;82;21194;-67
2021/03/02 13:33:12;;;;;;;33.90;18.77;;;;;;;4.32;73.26;99810.66;1724757;82;21610;-68
2021/03/02 13:35:44;;;;;;;36.80;19.27;;;;;;;4.30;73.24;99798.34;1747616;82;21154;-69
2021/03/02 13:38:15;;;;;;;40.95;21.15;;;;;;;4.29;73.36;99803.27;1709424;83;21147;-70
2021/03/02 13:40:42;;;;;;;45.28;20.88;;;;;;;4.31;73.39;99786.23;1724155;82;21163;-67
2021/03/02 13:43:14;;;;;;;40.00;21.15;;;;;;;4.32;73.32;99804.45;1723266;83;21170;-67
2021/03/02 13:45:41;;;;;;;37.48;18.73;;;;;;;4.30;73.44;99809.84;1723765;83;21194;-68
2021/03/02 13:48:10;;;;;;;38.80;19.42;;;;;;;4.28;73.58;99818.41;1723304;83;21182;-69
2021/03/02 13:50:38;;;;;;;36.98;19.75;;;;;;;4.28;73.70;99817.08;1725090;82;21617;-68
2021/03/02 13:53:09;;;;;;;37.85;19.23;;;;;;;4.24;73.90;99811.52;1723493;83;21704;-68
2021/03/02 13:55:37;;;;;;;40.78;20.60;;;;;;;4.23;74.02;99809.81;1723548;83;21603;-69
2021/03/02 13:58:06;;;;;;;35.63;17.80;;;;;;;4.28;74.12;99814.41;1728387;82;21195;-68
2021/03/02 14:00:35;;;;;;;36.75;19.52;;;;;;;4.29;73.87;99807.27;1749166;82;21139;-66
2021/03/02 14:03:04;;;;;;;35.95;19.25;;;;;;;4.30;73.92;99828.53;1735170;82;21143;-66
2021/03/02 14:05:33;;;;;;;37.65;18.35;;;;;;;4.26;73.64;99818.97;1754192;82;21199;-68
2021/03/02 14:08:07;;;;;;;32.60;18.35;;;;;;;4.21;73.48;99830.84;1743612;82;21119;-67
2021/03/02 14:10:36;;;;;;;33.50;17.10;;;;;;;4.16;73.83;99812.88;1736244;82;21581;-67
2021/03/02 14:13:05;;;;;;;34.00;18.52;;;;;;;4.16;73.82;99836.42;1737442;82;21277;-67
2021/03/02 14:15:35;;;;;;;31.10;16.27;;;;;;;4.10;73.73;99819.41;1725152;82;21162;-67
2021/03/02 14:18:06;;;;;;;32.95;17.25;;;;;;;4.03;73.92;99836.67;1734361;82;21736;-67
2021/03/02 14:20:35;;;;;;;40.75;18.82;;;;;;;3.97;74.22;99819.66;1731390;82;21186;-67
2021/03/02 14:23:03;;;;;;;33.53;17.67;;;;;;;3.93;74.21;99828.77;1724034;82;21296;-67
2021/03/02 14:25:31;;;;;;;32.33;17.52;;;;;;;3.93;74.45;99840.77;1733522;82;21203;-67
2021/03/02 14:28:00;;;;;;;37.53;17.77;;;;;;;3.95;74.27;99824.22;1731019;82;21147;-66
2021/03/02 14:30:28;;;;;;;35.65;18.75;;;;;;;3.97;74.29;99854.80;1734043;82;21175;-67
2021/03/02 14:32:57;;;;;;;36.13;18.37;;;;;;;3.97;73.95;99840.13;1732114;82;21613;-67
2021/03/02 14:35:26;;;;;;;35.00;18.55;;;;;;;3.95;74.11;99830.89;1732979;82;21155;-59
2021/03/02 14:37:54;;;;;;;41.45;18.70;;;;;;;3.97;74.16;99809.45;1732205;82;21198;-60
2021/03/02 14:40:22;;;;;;;32.85;16.62;;;;;;;4.01;74.20;99794.55;1733577;80;21692;-60
2021/03/02 14:42:56;;;;;;;30.40;15.72;;;;;;;4.05;73.58;99759.23;1728542;82;21174;-63
2021/03/02 14:45:36;;;;;;;31.55;17.10;;;;;;;3.99;73.00;99770.23;1726468;82;21182;-61
2021/03/02 14:48:22;;;;;;;34.03;17.20;;;;;;;3.90;73.26;99782.72;1726052;82;21253;-61
2021/03/02 14:50:50;;;;;;;39.38;19.12;;;;;;;3.85;73.67;99778.95;1730814;82;21162;-60
2021/03/02 14:53:20;;;;;;;31.20;16.93;;;;;;;3.85;73.77;99774.95;1734389;82;21300;-59
2021/03/02 14:55:51;;;;;;;35.75;16.05;;;;;;;3.85;73.70;99779.42;1724385;82;21213;-59
2021/03/02 14:58:25;;;;;;;32.20;16.82;;;;;;;3.83;73.53;99793.30;1724894;82;21131;-59
2021/03/02 15:00:59;;;;;;;32.05;15.60;;;;;;;3.78;73.58;99771.75;1723673;83;21584;-60
2021/03/02 15:03:27;;;;;;;35.73;17.37;;;;;;;3.76;73.63;99772.77;1729452;81;21213;-61
2021/03/02 15:05:59;;;;;;;31.02;17.37;;;;;;;3.73;73.80;99764.94;1727981;82;21381;-60
2021/03/02 15:08:30;;;;;;;36.28;17.35;;;;;;;3.71;73.85;99780.16;1740439;82;21261;-60
2021/03/02 15:11:00;;;;;;;29.77;16.25;;;;;;;3.69;73.95;99787.37;1737247;82;21131;-63
2021/03/02 15:13:32;;;;;;;34.23;17.25;;;;;;;3.66;74.09;99764.41;1726255;82;22248;-63
2021/03/02 15:16:01;;;;;;;35.28;16.80;;;;;;;3.66;74.16;99780.39;1725057;82;21203;-61
2021/03/02 15:18:32;;;;;;;35.00;17.42;;;;;;;3.66;74.17;99775.53;1727487;82;21511;-62
2021/03/02 15:21:00;;;;;;;38.08;17.77;;;;;;;3.66;74.25;99784.86;1730727;82;21756;-67
2021/03/02 15:23:30;;;;;;;37.83;18.65;;;;;;;3.65;74.30;99775.98;1726472;82;21734;-60
2021/03/02 15:25:58;;;;;;;30.77;17.10;;;;;;;3.66;74.52;99768.86;1727347;82;21171;-58
2021/03/02 15:28:27;;;;;;;33.42;17.00;;;;;;;3.66;74.29;99763.07;1730679;82;21174;-60
2021/03/02 15:30:55;;;;;;;31.45;16.82;;;;;;;3.61;74.31;99773.09;1734137;82;21625;-60
2021/03/02 15:33:25;;;;;;;29.80;15.63;;;;;;;3.60;74.42;99765.19;1738123;82;21256;-63
2021/03/02 15:35:54;;;;;;;33.92;17.75;;;;;;;3.55;74.75;99763.22;1734100;82;21144;-65
2021/03/02 15:38:23;;;;;;;33.92;15.93;;;;;;;3.50;74.65;99751.46;1745923;82;21209;-65
2021/03/02 15:40:52;;;;;;;33.20;17.48;;;;;;;3.44;74.76;99743.79;1726951;82;21134;-65
2021/03/02 15:43:21;;;;;;;39.58;18.40;;;;;;;3.38;75.10;99754.77;1738669;82;21155;-64
2021/03/02 15:45:49;;;;;;;36.53;16.90;;;;;;;3.33;75.42;99763.45;1733845;82;21168;-67
2021/03/02 15:48:17;;;;;;;35.23;17.48;;;;;;;3.31;75.53;99760.47;1733308;82;21391;-68
2021/03/02 15:50:47;;;;;;;42.48;18.48;;;;;;;3.28;75.56;99757.95;1724520;82;22196;-66
2021/03/02 15:53:15;;;;;;;39.67;18.30;;;;;;;3.25;75.72;99770.11;1711873;82;21183;-63
2021/03/02 15:55:47;;;;;;;39.42;18.37;;;;;;;3.24;75.92;99777.23;1739502;82;21300;-62
2021/03/02 15:58:15;;;;;;;36.58;16.93;;;;;;;3.24;75.96;99777.23;1739640;82;21131;-61
2021/03/02 16:00:43;;;;;;;35.68;16.85;;;;;;;3.22;76.05;99777.78;1693856;83;21198;-60
2021/03/02 16:03:34;;;;;;;39.55;18.17;;;;;;;3.19;76.08;99779.75;1737540;82;21171;-61
2021/03/02 16:06:18;;;;;;;28.80;14.53;;;;;;;3.17;76.07;99782.47;1723697;82;21621;-61
2021/03/02 16:09:26;;;;;;;32.00;15.65;;;;;;;3.17;76.18;99773.14;1799996;78;23052;-62
2021/03/02 16:11:55;;;;;;;35.05;16.82;;;;;;;3.11;76.37;99785.44;1778865;80;21179;-65
2021/03/02 16:14:24;;;;;;;35.03;15.78;;;;;;;3.10;76.51;99801.50;1765636;80;21146;-66
2021/03/02 16:16:52;;;;;;;30.00;15.32;;;;;;;3.10;76.50;99805.04;1740488;81;21206;-61
2021/03/02 16:19:20;;;;;;;33.78;16.42;;;;;;;3.14;76.58;99810.61;1714424;82;21190;-61
2021/03/02 16:21:49;;;;;;;39.05;15.53;;;;;;;3.18;76.48;99813.51;1713536;82;21308;-63
2021/03/02 16:24:19;;;;;;;36.95;16.77;;;;;;;3.20;76.21;99800.97;1711620;82;21191;-61
2021/03/02 16:26:47;;;;;;;33.38;16.23;;;;;;;3.22;76.20;99820.86;1711995;82;21759;-63
2021/03/02 16:29:16;;;;;;;34.13;17.00;;;;;;;3.21;76.21;99801.84;1728580;83;21186;-64
2021/03/02 16:31:45;;;;;;;33.67;17.12;;;;;;;3.22;76.34;99808.88;1712064;83;21160;-65
2021/03/02 16:34:16;;;;;;;32.88;15.55;;;;;;;3.22;76.31;99807.09;1712179;83;21179;-64
2021/03/02 16:36:46;;;;;;;29.77;15.32;;;;;;;3.20;76.36;99814.29;1729986;81;22240;-64
2021/03/02 16:39:15;;;;;;;36.73;16.40;;;;;;;3.20;76.50;99821.41;1736773;81;21151;-64
2021/03/02 16:41:42;;;;;;;31.93;16.35;;;;;;;3.17;76.61;99828.24;1683740;82;21189;-63
2021/03/02 16:44:10;;;;;;;33.10;16.20;;;;;;;3.14;76.61;99841.23;1716780;83;21206;-65
2021/03/02 16:46:40;;;;;;;39.30;16.57;;;;;;;3.11;76.83;99842.70;1723016;82;21191;-63
2021/03/02 16:49:17;;;;;;;31.87;15.25;;;;;;;3.09;76.91;99837.05;1721499;82;21285;-63
2021/03/02 16:52:15;;;;;;;34.40;15.18;;;;;;;3.03;77.11;99855.53;1710835;82;21138;-63
2021/03/02 16:55:03;;;;;;;36.85;16.97;;;;;;;2.99;77.30;99844.64;1682536;82;21219;-65
2021/03/02 16:57:50;;;;;;;34.50;15.90;;;;;;;2.95;77.51;99841.70;1707198;82;21317;-63
2021/03/02 17:00:21;;;;;;;32.30;15.32;;;;;;;2.93;77.64;99855.09;1745301;81;21209;-68
2021/03/02 17:03:06;;;;;;;31.10;14.63;;;;;;;2.92;77.78;99867.16;1716798;82;21327;-67
2021/03/02 17:05:34;;;;;;;32.88;15.75;;;;;;;2.91;77.93;99865.41;1703361;82;21652;-67
2021/03/02 17:08:03;;;;;;;32.28;15.08;;;;;;;2.92;78.00;99874.69;1718367;82;21590;-68
2021/03/02 17:10:31;;;;;;;30.43;14.78;;;;;;;2.95;78.04;99874.52;1721928;82;21177;-68
2021/03/02 17:12:59;;;;;;;34.35;14.18;;;;;;;2.98;78.00;99882.38;1720048;82;21250;-67
2021/03/02 17:15:26;;;;;;;37.73;17.62;;;;;;;2.99;78.03;99900.06;1734222;81;21316;-67
2021/03/02 17:17:54;;;;;;;31.82;15.00;;;;;;;3.00;78.02;99901.80;1744468;81;21134;-67
2021/03/02 17:20:23;;;;;;;31.93;15.15;;;;;;;3.01;78.03;99900.85;1740593;81;21332;-67
2021/03/02 17:22:51;;;;;;;33.40;16.25;;;;;;;3.02;78.12;99895.94;1744856;81;21157;-67
2021/03/02 17:25:20;;;;;;;28.83;16.00;;;;;;;3.04;78.15;99899.39;1744710;81;21221;-67
2021/03/02 17:27:48;;;;;;;35.80;17.20;;;;;;;3.13;78.06;99901.21;1733948;81;21197;-67
2021/03/02 17:30:18;;;;;;;37.10;17.05;;;;;;;3.18;77.83;99914.72;1721562;81;21162;-68
2021/03/02 17:32:45;;;;;;;33.30;15.15;;;;;;;3.23;77.77;99912.71;1719658;82;21186;-67
2021/03/02 17:35:14;;;;;;;36.50;16.93;;;;;;;3.29;77.72;99910.20;1731996;81;21721;-67
2021/03/02 17:37:42;;;;;;;38.40;17.02;;;;;;;3.32;77.61;99911.41;1712187;81;21182;-68
2021/03/02 17:40:12;;;;;;;30.92;15.78;;;;;;;3.36;77.55;99908.98;1734042;81;21146;-67
2021/03/02 17:42:40;;;;;;;37.33;16.00;;;;;;;3.38;77.58;99907.98;1737859;81;21178;-68
2021/03/02 17:45:09;;;;;;;34.80;16.50;;;;;;;3.43;77.45;99912.59;1704486;81;21305;-67
2021/03/02 17:47:37;;;;;;;33.28;15.30;;;;;;;3.44;77.33;99920.13;1722965;81;21162;-68
2021/03/02 17:50:06;;;;;;;35.60;17.90;;;;;;;3.41;77.32;99893.16;1724017;81;21133;-68
2021/03/02 17:52:34;;;;;;;34.38;15.55;;;;;;;3.42;77.42;99918.00;1723557;82;21210;-68
2021/03/02 17:55:05;;;;;;;39.73;17.70;;;;;;;3.45;77.44;99916.05;1717630;83;21198;-68
2021/03/02 17:57:33;;;;;;;36.40;17.07;;;;;;;3.49;77.41;99934.09;1711663;82;21777;-67
2021/03/02 18:00:01;;;;;;;37.35;16.12;;;;;;;3.49;77.36;99924.77;1724227;81;21419;-66
2021/03/02 18:02:30;;;;;;;30.90;15.78;;;;;;;3.51;77.40;99922.89;1713049;82;21182;-67
2021/03/02 18:04:59;;;;;;;35.70;14.83;;;;;;;3.52;77.40;99929.93;1729168;81;21256;-67
2021/03/02 18:07:27;;;;;;;31.93;14.07;;;;;;;3.56;77.44;99926.20;1737609;81;21308;-67
2021/03/02 18:09:55;;;;;;;28.67;14.15;;;;;;;3.57;77.37;99918.13;1704212;82;21336;-68
2021/03/02 18:12:25;;;;;;;25.92;13.45;;;;;;;3.59;77.30;99927.38;1720754;81;21651;-70
2021/03/02 18:15:06;;;;;;;27.22;11.85;;;;;;;3.64;77.18;99916.02;1816815;77;23186;-68
2021/03/02 18:17:35;;;;;;;27.98;13.88;;;;;;;3.59;77.16;99930.03;1794169;78;22320;-67
2021/03/02 18:20:06;;;;;;;23.40;11.60;;;;;;;3.58;77.19;99918.50;1798156;78;21225;-66
2021/03/02 18:22:34;;;;;;;23.25;11.80;;;;;;;3.54;77.17;99886.74;1769485;79;21174;-67
2021/03/02 18:25:04;;;;;;;25.08;13.35;;;;;;;3.48;77.24;99895.92;1763420;81;21620;-67
2021/03/02 18:27:32;;;;;;;23.98;12.20;;;;;;;3.41;77.43;99889.62;1778074;79;21207;-67
2021/03/02 18:30:03;;;;;;;20.23;11.05;;;;;;;3.33;77.66;99891.34;1802573;78;21616;-65
2021/03/02 18:32:33;;;;;;;22.07;11.53;;;;;;;3.26;77.90;99871.72;1811293;78;21145;-67
2021/03/02 18:35:02;;;;;;;18.50;10.60;;;;;;;3.23;78.14;99891.86;1811232;78;21130;-67
2021/03/02 18:37:30;;;;;;;26.87;13.15;;;;;;;3.20;78.26;99884.00;1802506;78;21205;-67
2021/03/02 18:39:57;;;;;;;22.13;12.03;;;;;;;3.16;78.44;99896.62;1801296;78;21145;-67
2021/03/02 18:42:27;;;;;;;25.12;12.73;;;;;;;3.12;78.70;99899.50;1772706;79;21724;-67
2021/03/02 18:44:55;;;;;;;27.22;12.37;;;;;;;3.10;78.94;99913.36;1784677;79;21163;-68
2021/03/02 18:47:25;;;;;;;27.27;12.47;;;;;;;3.08;79.03;99900.59;1734830;81;21123;-69
2021/03/02 18:49:56;;;;;;;21.85;11.63;;;;;;;3.04;79.14;99907.38;1763705;80;21185;-66
2021/03/02 18:52:25;;;;;;;22.35;12.23;;;;;;;3.01;79.36;99898.69;1806090;78;21178;-69
2021/03/02 18:54:54;;;;;;;22.95;11.55;;;;;;;2.99;79.47;99901.39;1805586;78;21126;-66
2021/03/02 18:57:23;;;;;;;27.62;11.30;;;;;;;2.96;79.54;99902.89;1793710;78;21162;-66
2021/03/02 18:59:51;;;;;;;21.60;11.90;;;;;;;2.96;79.62;99904.68;1802285;78;21323;-70
2021/03/02 19:02:22;;;;;;;21.75;11.78;;;;;;;2.95;79.70;99901.61;1795991;78;21165;-67
2021/03/02 19:04:55;;;;;;;27.45;12.00;;;;;;;2.93;79.71;99914.13;1764239;80;21174;-68
2021/03/02 19:07:23;;;;;;;24.70;12.03;;;;;;;2.92;79.84;99908.42;1738074;81;21255;-67
2021/03/02 19:09:55;;;;;;;22.40;10.48;;;;;;;2.88;79.97;99912.17;1805151;78;21138;-67
2021/03/02 19:12:23;;;;;;;17.75;9.95;;;;;;;2.88;80.08;99905.02;1797617;78;21170;-66
2021/03/02 19:14:51;;;;;;;18.42;9.35;;;;;;;2.89;80.22;99906.77;1800166;78;21178;-65
2021/03/02 19:17:18;;;;;;;17.75;10.80;;;;;;;2.88;80.26;99924.16;1791627;78;21958;-68
2021/03/02 19:19:47;;;;;;;20.30;9.43;;;;;;;2.89;80.26;99932.52;1791391;79;21121;-68
2021/03/02 19:22:14;;;;;;;17.15;8.38;;;;;;;2.88;80.32;99926.33;1807348;79;21273;-68
2021/03/02 19:24:42;;;;;;;17.20;9.55;;;;;;;2.87;80.44;99929.06;1786124;79;21126;-67
2021/03/02 19:27:09;;;;;;;22.05;11.25;;;;;;;2.86;80.46;99934.84;1751671;80;21151;-68
2021/03/02 19:29:40;;;;;;;18.70;10.03;;;;;;;2.86;80.47;99941.50;1785456;79;21292;-68
2021/03/02 19:32:09;;;;;;;16.75;8.08;;;;;;;2.86;80.49;99933.52;1787873;78;21185;-68
2021/03/02 19:34:37;;;;;;;18.52;9.20;;;;;;;2.87;80.47;99919.75;1788435;79;21297;-66
2021/03/02 19:37:05;;;;;;;17.12;10.10;;;;;;;2.88;80.45;99936.97;1785389;79;21186;-67
2021/03/02 19:39:34;;;;;;;18.52;9.93;;;;;;;2.87;80.51;99941.92;1784637;78;21267;-67
2021/03/02 19:42:02;;;;;;;20.23;10.05;;;;;;;2.87;80.52;99944.58;1785786;79;21316;-67
2021/03/02 19:44:30;;;;;;;20.32;10.15;;;;;;;2.88;80.51;99940.97;1786188;78;21578;-67
2021/03/02 19:46:58;;;;;;;17.30;10.35;;;;;;;2.90;80.52;99953.77;1788059;78;21709;-68
2021/03/02 19:49:27;;;;;;;17.57;10.05;;;;;;;2.91;80.52;99947.95;1767525;79;21138;-66
2021/03/02 19:51:56;;;;;;;17.05;9.13;;;;;;;2.92;80.51;99945.24;1794331;79;21305;-69
2021/03/02 19:54:24;;;;;;;17.45;9.13;;;;;;;2.90;80.53;99943.13;1759455;80;21849;-68
2021/03/02 19:56:57;;;;;;;18.20;8.78;;;;;;;2.88;80.58;99952.11;1724112;81;21277;-68
2021/03/02 19:59:25;;;;;;;17.98;9.43;;;;;;;2.86;80.68;99958.81;1788339;79;21680;-64
2021/03/02 20:01:53;;;;;;;17.15;8.70;;;;;;;2.87;80.75;99961.02;1792902;78;21304;-63
2021/03/02 20:04:21;;;;;;;18.92;9.20;;;;;;;2.89;80.77;99972.00;1790432;79;21146;-64
2021/03/02 20:06:51;;;;;;;18.25;9.18;;;;;;;2.93;80.71;99971.37;1791817;79;21530;-63
2021/03/02 20:09:21;;;;;;;17.42;9.43;;;;;;;2.93;80.71;99964.26;1772731;80;21159;-62
2021/03/02 20:11:50;;;;;;;17.70;9.53;;;;;;;2.94;80.65;99973.99;1757981;80;21594;-63
2021/03/02 20:14:20;;;;;;;17.20;9.13;;;;;;;2.95;80.62;99977.03;1758604;80;21316;-64
2021/03/02 20:16:48;;;;;;;16.95;8.80;;;;;;;2.94;80.64;99976.66;1789260;78;21333;-63
2021/03/02 20:19:17;;;;;;;17.57;8.70;;;;;;;2.91;80.73;99974.58;1787481;79;21167;-66
2021/03/02 20:21:47;;;;;;;21.65;8.85;;;;;;;2.88;80.87;99970.25;1785738;79;21166;-66
2021/03/02 20:24:18;;;;;;;16.52;9.05;;;;;;;2.86;80.98;99988.59;1758839;80;21180;-67
2021/03/02 20:26:49;;;;;;;19.27;8.53;;;;;;;2.84;81.12;99987.30;1747140;80;21164;-67
2021/03/02 20:29:22;;;;;;;17.32;9.23;;;;;;;2.83;81.21;99984.26;1782995;79;21178;-68
2021/03/02 20:31:51;;;;;;;14.13;7.70;;;;;;;2.82;81.32;99985.17;1753184;80;21166;-69
2021/03/02 20:34:20;;;;;;;13.83;8.13;;;;;;;2.83;81.43;99984.72;1764566;80;21211;-68
2021/03/02 20:36:49;;;;;;;17.62;9.20;;;;;;;2.86;81.41;99980.11;1781654;79;21142;-68
2021/03/02 20:39:21;;;;;;;16.25;8.88;;;;;;;2.88;81.41;99986.72;1784639;79;21143;-69
2021/03/02 20:41:51;;;;;;;15.85;8.95;;;;;;;2.93;81.36;99986.02;1784026;79;21134;-67
2021/03/02 20:44:19;;;;;;;17.17;8.80;;;;;;;2.95;81.27;99977.03;1786108;79;21574;-67
2021/03/02 20:46:50;;;;;;;16.10;8.65;;;;;;;2.99;81.19;99987.09;1794657;79;21570;-69
2021/03/02 20:49:18;;;;;;;17.05;7.60;;;;;;;3.02;81.08;99987.81;1749459;80;21166;-67
2021/03/02 20:51:49;;;;;;;15.43;7.53;;;;;;;3.09;80.98;99990.19;1731479;82;21155;-69
2021/03/02 20:54:17;;;;;;;16.45;7.45;;;;;;;3.11;80.86;99983.86;1784262;80;21158;-69
2021/03/02 20:56:46;;;;;;;12.05;6.97;;;;;;;3.13;80.75;99980.66;1780208;79;21651;-67
2021/03/02 20:59:28;;;;;;;13.40;7.30;;;;;;;3.17;80.67;99996.05;1724972;81;21163;-69
2021/03/02 21:01:57;;;;;;;13.03;6.83;;;;;;;3.20;80.59;99999.88;1774552;79;21549;-68
2021/03/02 21:04:26;;;;;;;13.48;7.53;;;;;;;3.20;80.45;100009.20;1748844;79;21116;-67
2021/03/02 21:06:54;;;;;;;13.20;6.28;;;;;;;3.23;80.41;100002.41;1774780;79;21153;-69
2021/03/02 21:09:22;;;;;;;15.23;6.42;;;;;;;3.24;80.33;100000.13;1766350;79;21163;-68
2021/03/02 21:11:51;;;;;;;12.60;6.72;;;;;;;3.25;80.31;100004.53;1786663;79;21771;-68
2021/03/02 21:14:20;;;;;;;11.93;5.87;;;;;;;3.25;80.31;100010.73;1787847;79;21332;-69
2021/03/02 21:16:48;;;;;;;10.05;6.50;;;;;;;3.26;80.25;99999.13;1789444;79;21162;-67
2021/03/02 21:19:18;;;;;;;11.55;6.72;;;;;;;3.28;80.25;100004.38;1792171;79;21570;-65
2021/03/02 21:21:46;;;;;;;13.93;6.87;;;;;;;3.30;80.25;99997.20;1754078;80;21194;-61
2021/03/02 21:24:16;;;;;;;12.25;5.90;;;;;;;3.31;80.16;100009.57;1788002;79;21136;-68
2021/03/02 21:26:45;;;;;;;12.63;7.33;;;;;;;3.33;80.07;100011.69;1754031;80;21301;-68
2021/03/02 21:29:13;;;;;;;11.97;6.50;;;;;;;3.33;80.05;99999.24;1754138;80;21185;-69
2021/03/02 21:31:41;;;;;;;11.63;6.45;;;;;;;3.31;80.05;100005.58;1792594;79;21151;-71
2021/03/02 21:34:11;;;;;;;10.90;6.30;;;;;;;3.31;80.10;100012.23;1793236;79;21146;-69
2021/03/02 21:36:41;;;;;;;10.35;5.62;;;;;;;3.32;80.13;100012.65;1795207;79;21138;-70
2021/03/02 21:39:10;;;;;;;10.45;5.62;;;;;;;3.32;80.13;100017.98;1792487;79;21186;-69
2021/03/02 21:41:37;;;;;;;11.38;5.45;;;;;;;3.29;80.17;100002.99;1788022;79;21503;-68
2021/03/02 21:44:06;;;;;;;12.43;6.12;;;;;;;3.29;80.21;100014.98;1749887;80;21111;-69
2021/03/02 21:46:34;;;;;;;13.72;6.87;;;;;;;3.29;80.27;100020.77;1776588;79;21124;-68
2021/03/02 21:49:02;;;;;;;10.63;6.03;;;;;;;3.28;80.27;100025.69;1788296;79;21202;-69
2021/03/02 21:51:32;;;;;;;10.30;5.70;;;;;;;3.27;80.38;100019.52;1787207;80;21152;-69
2021/03/02 21:54:00;;;;;;;13.60;6.45;;;;;;;3.29;80.35;100026.09;1790628;79;21172;-72
2021/03/02 21:56:28;;;;;;;12.68;6.50;;;;;;;3.27;80.39;100022.64;1791315;79;21200;-70
2021/03/02 21:58:56;;;;;;;13.58;7.05;;;;;;;3.27;80.45;100034.63;1758631;80;21712;-60
2021/03/02 22:01:24;;;;;;;12.15;6.10;;;;;;;3.27;80.49;100033.30;1724671;82;21336;-60
2021/03/02 22:03:53;;;;;;;9.93;5.30;;;;;;;3.27;80.52;100030.17;1718469;82;21198;-61
2021/03/02 22:06:21;;;;;;;13.88;5.80;;;;;;;3.26;80.54;100036.42;1729143;81;21384;-61
2021/03/02 22:08:48;;;;;;;9.48;5.42;;;;;;;3.22;80.59;100027.30;1664965;85;21304;-60
2021/03/02 22:11:17;;;;;;;11.35;5.05;;;;;;;3.18;80.73;100030.59;1700203;83;21146;-62
2021/03/02 22:13:46;;;;;;;10.32;6.05;;;;;;;3.13;80.89;100033.92;1688055;83;21202;-62
2021/03/02 22:16:15;;;;;;;11.05;5.45;;;;;;;3.11;81.04;100037.13;1719550;82;21127;-61
2021/03/02 22:18:44;;;;;;;14.20;6.33;;;;;;;3.06;81.18;100047.11;1716370;82;21150;-64
2021/03/02 22:21:16;;;;;;;15.98;6.05;;;;;;;2.99;81.37;100026.55;1721818;81;21164;-62